sensor_id;sensor_type;location;lat;lon;timestamp;pressure;altitude;pressure_sealevel;temperature;humidity
21273;BME280;36726;52.328;10.552;2023-04-01T00:01:12;98546.91;;;11.53;100.00
21273;BME280;36726;52.328;10.552;2023-04-01T00:03:43;98550.44;;;11.52;100.00
21273;BME280;36726;52.328;10.552;2023-04-01T00:06:13;98550.44;;;11.52;100.00
21273;BME280;36726;52.328;10.552;2023-04-01T00:08:41;98553.97;;;11.52;100.00
21273;BME280;36726;52.328;10.552;2023-04-01T00:11:08;98548.66;;;11.52;100.00
21273;BME280;36726;52.328;10.552;2023-04-01T00:13:35;98552.19;;;11.53;100.00
21273;BME280;36726;52.328;10.552;2023-04-01T00:16:02;98548.59;;;11.56;100.00
21273;BME280;36726;52.328;10.552;2023-04-01T00:18:45;98541.56;;;11.55;100.00
21273;BME280;36726;52.328;10.552;2023-04-01T00:21:14;98552.16;;;11.55;100.00
21273;BME280;36726;52.328;10.552;2023-04-01T00:23:42;98544.25;;;11.53;100.00
21273;BME280;36726;52.328;10.552;2023-04-01T00:26:08;98547.84;;;11.50;100.00
21273;BME280;36726;52.328;10.552;2023-04-01T00:28:36;98554.03;;;11.49;100.00
21273;BME280;36726;52.328;10.552;2023-04-01T00:31:07;98549.63;;;11.48;100.00
21273;BME280;36726;52.328;10.552;2023-04-01T00:33:34;98546.16;;;11.48;100.00
21273;BME280;36726;52.328;10.552;2023-04-01T00:36:16;98544.44;;;11.45;100.00
21273;BME280;36726;52.328;10.552;2023-04-01T00:38:45;98546.16;;;11.46;100.00
21273;BME280;36726;52.328;10.552;2023-04-01T00:41:14;98545.31;;;11.44;100.00
21273;BME280;36726;52.328;10.552;2023-04-01T00:43:44;98544.50;;;11.42;100.00
21273;BME280;36726;52.328;10.552;2023-04-01T00:46:11;98558.56;;;11.44;100.00
21273;BME280;36726;52.328;10.552;2023-04-01T00:48:40;98542.72;;;11.43;100.00
21273;BME280;36726;52.328;10.552;2023-04-01T00:51:18;98544.50;;;11.42;100.00
21273;BME280;36726;52.328;10.552;2023-04-01T00:53:48;98545.44;;;11.40;100.00
21273;BME280;36726;52.328;10.552;2023-04-01T00:56:37;98541.03;;;11.40;100.00
21273;BME280;36726;52.328;10.552;2023-04-01T00:59:12;98544.56;;;11.39;100.00
21273;BME280;36726;52.328;10.552;2023-04-01T01:01:41;98553.38;;;11.40;100.00
21273;BME280;36726;52.328;10.552;2023-04-01T01:04:25;98546.34;;;11.39;100.00
21273;BME280;36726;52.328;10.552;2023-04-01T01:07:07;98547.28;;;11.36;100.00
21273;BME280;36726;52.328;10.552;2023-04-01T01:09:52;98544.69;;;11.35;100.00
21273;BME280;36726;52.328;10.552;2023-04-01T01:12:46;98543.78;;;11.34;100.00
21273;BME280;36726;52.328;10.552;2023-04-01T01:15:25;98539.41;;;11.33;100.00
21273;BME280;36726;52.328;10.552;2023-04-01T01:18:12;98547.38;;;11.32;100.00
21273;BME280;36726;52.328;10.552;2023-04-01T01:32:00;98540.50;;;11.23;100.00
21273;BME280;36726;52.328;10.552;2023-04-01T01:37:15;98541.47;;;11.19;100.00
21273;BME280;36726;52.328;10.552;2023-04-01T01:39:44;98541.47;;;11.19;100.00
21273;BME280;36726;52.328;10.552;2023-04-01T01:42:15;98543.31;;;11.17;100.00
21273;BME280;36726;52.328;10.552;2023-04-01T01:44:45;98539.78;;;11.17;100.00
21273;BME280;36726;52.328;10.552;2023-04-01T01:47:14;98543.34;;;11.14;100.00
21273;BME280;36726;52.328;10.552;2023-04-01T01:49:45;98546.03;;;11.13;100.00
21273;BME280;36726;52.328;10.552;2023-04-01T01:52:12;98547.81;;;11.12;100.00
21273;BME280;36726;52.328;10.552;2023-04-01T01:54:53;98553.06;;;11.14;100.00
21273;BME280;36726;52.328;10.552;2023-04-01T01:57:26;98544.28;;;11.13;100.00
21273;BME280;36726;52.328;10.552;2023-04-01T02:00:07;98548.66;;;11.14;100.00
21273;BME280;36726;52.328;10.552;2023-04-01T02:02:42;98549.56;;;11.13;100.00
21273;BME280;36726;52.328;10.552;2023-04-01T02:05:11;98549.56;;;11.13;100.00
21273;BME280;36726;52.328;10.552;2023-04-01T02:07:43;98549.56;;;11.13;100.00
21273;BME280;36726;52.328;10.552;2023-04-01T02:10:17;98556.59;;;11.14;100.00
21273;BME280;36726;52.328;10.552;2023-04-01T02:12:46;98547.75;;;11.15;100.00
21273;BME280;36726;52.328;10.552;2023-04-01T02:15:15;98552.13;;;11.16;100.00
21273;BME280;36726;52.328;10.552;2023-04-01T02:17:44;98552.97;;;11.18;100.00
21273;BME280;36726;52.328;10.552;2023-04-01T02:20:19;98549.41;;;11.19;100.00
21273;BME280;36726;52.328;10.552;2023-04-01T02:22:53;98555.59;;;11.20;100.00
21273;BME280;36726;52.328;10.552;2023-04-01T02:25:27;98554.72;;;11.19;100.00
21273;BME280;36726;52.328;10.552;2023-04-01T02:27:56;98561.75;;;11.20;100.00
21273;BME280;36726;52.328;10.552;2023-04-01T02:30:27;98557.34;;;11.21;100.00
21273;BME280;36726;52.328;10.552;2023-04-01T02:32:56;98558.19;;;11.21;100.00
21273;BME280;36726;52.328;10.552;2023-04-01T02:35:24;98558.19;;;11.21;100.00
21273;BME280;36726;52.328;10.552;2023-04-01T02:37:54;98555.59;;;11.20;100.00
21273;BME280;36726;52.328;10.552;2023-04-01T02:40:21;98562.63;;;11.21;100.00
21273;BME280;36726;52.328;10.552;2023-04-01T02:42:50;98559.06;;;11.22;100.00
21273;BME280;36726;52.328;10.552;2023-04-01T02:45:17;98560.84;;;11.21;100.00
21273;BME280;36726;52.328;10.552;2023-04-01T02:47:44;98555.63;;;11.18;100.00
21273;BME280;36726;52.328;10.552;2023-04-01T02:50:13;98562.69;;;11.18;100.00
21273;BME280;36726;52.328;10.552;2023-04-01T02:52:40;98564.47;;;11.17;100.00
21273;BME280;36726;52.328;10.552;2023-04-01T02:55:06;98570.63;;;11.18;100.00
21273;BME280;36726;52.328;10.552;2023-04-01T02:57:33;98563.59;;;11.17;100.00
21273;BME280;36726;52.328;10.552;2023-04-01T03:00:00;98574.22;;;11.15;100.00
21273;BME280;36726;52.328;10.552;2023-04-01T03:02:27;98570.75;;;11.13;100.00
21273;BME280;36726;52.328;10.552;2023-04-01T03:04:53;98570.78;;;11.12;100.00
21273;BME280;36726;52.328;10.552;2023-04-01T03:07:20;98570.78;;;11.10;100.00
21273;BME280;36726;52.328;10.552;2023-04-01T03:09:47;98574.34;;;11.09;100.00
21273;BME280;36726;52.328;10.552;2023-04-01T03:12:14;98571.72;;;11.08;100.00
21273;BME280;36726;52.328;10.552;2023-04-01T03:14:48;98569.97;;;11.07;100.00
21273;BME280;36726;52.328;10.552;2023-04-01T03:17:15;98574.41;;;11.06;100.00
21273;BME280;36726;52.328;10.552;2023-04-01T03:19:42;98576.22;;;11.04;100.00
21273;BME280;36726;52.328;10.552;2023-04-01T03:22:12;98570.97;;;11.03;100.00
21273;BME280;36726;52.328;10.552;2023-04-01T03:24:39;98577.09;;;11.03;100.00
21273;BME280;36726;52.328;10.552;2023-04-01T03:27:05;98576.25;;;11.03;100.00
21273;BME280;36726;52.328;10.552;2023-04-01T03:29:32;98576.25;;;11.03;100.00
21273;BME280;36726;52.328;10.552;2023-04-01T03:31:59;98583.28;;;11.04;100.00
21273;BME280;36726;52.328;10.552;2023-04-01T03:34:26;98578.03;;;11.02;100.00
21273;BME280;36726;52.328;10.552;2023-04-01T03:36:52;98579.78;;;11.02;100.00
21273;BME280;36726;52.328;10.552;2023-04-01T03:39:19;98586.84;;;11.01;100.00
21273;BME280;36726;52.328;10.552;2023-04-01T03:41:46;98579.81;;;11.00;100.00
21273;BME280;36726;52.328;10.552;2023-04-01T03:44:13;98590.38;;;11.02;100.00
21273;BME280;36726;52.328;10.552;2023-04-01T03:46:40;98584.19;;;11.01;100.00
21273;BME280;36726;52.328;10.552;2023-04-01T03:49:08;98585.13;;;11.00;100.00
21273;BME280;36726;52.328;10.552;2023-04-01T03:51:39;98585.16;;;10.99;100.00
21273;BME280;36726;52.328;10.552;2023-04-01T03:54:10;98584.22;;;11.00;100.00
21273;BME280;36726;52.328;10.552;2023-04-01T03:56:38;98593.97;;;10.99;100.00
21273;BME280;36726;52.328;10.552;2023-04-01T03:59:08;98593.09;;;10.99;100.00
21273;BME280;36726;52.328;10.552;2023-04-01T04:01:35;98593.97;;;10.99;100.00
21273;BME280;36726;52.328;10.552;2023-04-01T04:04:02;98590.47;;;10.97;100.00
21273;BME280;36726;52.328;10.552;2023-04-01T04:06:28;98589.56;;;10.98;100.00
21273;BME280;36726;52.328;10.552;2023-04-01T04:08:55;98594.84;;;10.98;100.00
21273;BME280;36726;52.328;10.552;2023-04-01T04:11:22;98595.78;;;10.97;100.00
21273;BME280;36726;52.328;10.552;2023-04-01T04:13:51;98597.50;;;10.98;100.00
21273;BME280;36726;52.328;10.552;2023-04-01T04:16:19;98601.06;;;10.97;100.00
21273;BME280;36726;52.328;10.552;2023-04-01T04:18:52;98595.78;;;10.97;100.00
21273;BME280;36726;52.328;10.552;2023-04-01T04:21:19;98600.13;;;10.98;100.00
21273;BME280;36726;52.328;10.552;2023-04-01T04:23:46;98601.06;;;10.97;100.00
21273;BME280;36726;52.328;10.552;2023-04-01T04:26:15;98605.50;;;10.95;100.00
21273;BME280;36726;52.328;10.552;2023-04-01T04:28:46;98606.38;;;10.94;100.00
21273;BME280;36726;52.328;10.552;2023-04-01T04:31:19;98601.97;;;10.95;100.00
21273;BME280;36726;52.328;10.552;2023-04-01T04:33:49;98608.16;;;10.95;100.00
21273;BME280;36726;52.328;10.552;2023-04-01T04:36:17;98609.00;;;10.96;100.00
21273;BME280;36726;52.328;10.552;2023-04-01T04:38:45;98613.44;;;10.95;100.00
21273;BME280;36726;52.328;10.552;2023-04-01T04:41:16;98618.69;;;10.97;100.00
21273;BME280;36726;52.328;10.552;2023-04-01T04:43:54;98614.31;;;10.94;100.00
21273;BME280;36726;52.328;10.552;2023-04-01T04:46:22;98620.53;;;10.93;100.00
21273;BME280;36726;52.328;10.552;2023-04-01T04:48:55;98617.03;;;10.91;100.00
21273;BME280;36726;52.328;10.552;2023-04-01T04:51:22;98624.09;;;10.91;100.00
21273;BME280;36726;52.328;10.552;2023-04-01T04:53:49;98617.94;;;10.90;100.00
21273;BME280;36726;52.328;10.552;2023-04-01T04:56:22;98620.59;;;10.90;100.00
21273;BME280;36726;52.328;10.552;2023-04-01T04:59:06;98624.13;;;10.89;100.00
21273;BME280;36726;52.328;10.552;2023-04-01T05:01:49;98621.53;;;10.88;100.00
21273;BME280;36726;52.328;10.552;2023-04-01T05:04:16;98624.16;;;10.88;100.00
21273;BME280;36726;52.328;10.552;2023-04-01T05:06:43;98625.88;;;10.89;100.00
21273;BME280;36726;52.328;10.552;2023-04-01T05:09:11;98621.47;;;10.89;100.00
21273;BME280;36726;52.328;10.552;2023-04-01T05:11:38;98632.91;;;10.91;100.00
21273;BME280;36726;52.328;10.552;2023-04-01T05:14:06;98624.94;;;10.93;100.00
21273;BME280;36726;52.328;10.552;2023-04-01T05:16:37;98625.81;;;10.93;100.00
21273;BME280;36726;52.328;10.552;2023-04-01T05:19:04;98633.75;;;10.93;100.00
21273;BME280;36726;52.328;10.552;2023-04-01T05:21:31;98627.53;;;10.94;100.00
21273;BME280;36726;52.328;10.552;2023-04-01T05:23:58;98632.78;;;10.97;100.00
21273;BME280;36726;52.328;10.552;2023-04-01T05:26:25;98623.88;;;11.01;100.00
21273;BME280;36726;52.328;10.552;2023-04-01T05:28:51;98632.63;;;11.05;100.00
21273;BME280;36726;52.328;10.552;2023-04-01T05:31:19;98636.09;;;11.08;100.00
21273;BME280;36726;52.328;10.552;2023-04-01T05:33:48;98637.75;;;11.12;100.00
21273;BME280;36726;52.328;10.552;2023-04-01T05:36:16;98635.09;;;11.14;100.00
21273;BME280;36726;52.328;10.552;2023-04-01T05:38:43;98637.66;;;11.18;100.00
21273;BME280;36726;52.328;10.552;2023-04-01T05:41:13;98641.13;;;11.20;100.00
21273;BME280;36726;52.328;10.552;2023-04-01T05:43:43;98635.78;;;11.23;100.00
21273;BME280;36726;52.328;10.552;2023-04-01T05:46:30;98646.28;;;11.28;100.00
21273;BME280;36726;52.328;10.552;2023-04-01T05:49:06;98646.25;;;11.29;100.00
21273;BME280;36726;52.328;10.552;2023-04-01T05:51:33;98642.66;;;11.32;100.00
21273;BME280;36726;52.328;10.552;2023-04-01T05:53:59;98647.97;;;11.30;100.00
21273;BME280;36726;52.328;10.552;2023-04-01T05:56:26;98647.94;;;11.33;100.00
21273;BME280;36726;52.328;10.552;2023-04-01T05:58:53;98649.63;;;11.36;100.00
21273;BME280;36726;52.328;10.552;2023-04-01T06:01:22;98657.53;;;11.37;100.00
21273;BME280;36726;52.328;10.552;2023-04-01T06:03:49;98659.25;;;11.40;100.00
21273;BME280;36726;52.328;10.552;2023-04-01T06:06:23;98660.97;;;11.42;100.00
21273;BME280;36726;52.328;10.552;2023-04-01T06:08:51;98661.78;;;11.44;100.00
21273;BME280;36726;52.328;10.552;2023-04-01T06:19:54;98672.19;;;11.53;100.00
21273;BME280;36726;52.328;10.552;2023-04-01T06:22:38;98671.28;;;11.55;100.00
21273;BME280;36726;52.328;10.552;2023-04-01T06:28:10;98668.44;;;11.64;100.00
21273;BME280;36726;52.328;10.552;2023-04-01T06:30:47;98674.50;;;11.70;100.00
21273;BME280;36726;52.328;10.552;2023-04-01T06:33:52;98676.06;;;11.80;100.00
21273;BME280;36726;52.328;10.552;2023-04-01T06:36:43;98674.97;;;11.89;100.00
21273;BME280;36726;52.328;10.552;2023-04-01T06:42:28;98684.41;;;12.02;100.00
21273;BME280;36726;52.328;10.552;2023-04-01T06:45:17;98682.47;;;12.08;100.00
21273;BME280;36726;52.328;10.552;2023-04-01T06:48:29;98682.38;;;12.11;100.00
21273;BME280;36726;52.328;10.552;2023-04-01T06:51:41;98687.50;;;12.19;100.00
21273;BME280;36726;52.328;10.552;2023-04-01T06:54:35;98683.03;;;12.21;100.00
21273;BME280;36726;52.328;10.552;2023-04-01T06:57:42;98687.38;;;12.25;100.00
21273;BME280;36726;52.328;10.552;2023-04-01T07:00:19;98682.03;;;12.26;100.00
21273;BME280;36726;52.328;10.552;2023-04-01T07:02:50;98688.13;;;12.30;100.00
21273;BME280;36726;52.328;10.552;2023-04-01T07:05:22;98688.88;;;12.36;100.00
21273;BME280;36726;52.328;10.552;2023-04-01T07:07:52;98687.03;;;12.40;100.00
21273;BME280;36726;52.328;10.552;2023-04-01T07:13:15;98688.44;;;12.55;100.00
21273;BME280;36726;52.328;10.552;2023-04-01T07:15:54;98697.91;;;12.63;100.00
21273;BME280;36726;52.328;10.552;2023-04-01T07:18:32;98695.00;;;12.74;100.00
21273;BME280;36726;52.328;10.552;2023-04-01T07:21:04;98699.13;;;12.84;100.00
21273;BME280;36726;52.328;10.552;2023-04-01T07:23:38;98701.59;;;12.91;100.00
21273;BME280;36726;52.328;10.552;2023-04-01T07:26:23;98705.78;;;13.00;100.00
21273;BME280;36726;52.328;10.552;2023-04-01T07:29:12;98706.41;;;13.11;100.00
21273;BME280;36726;52.328;10.552;2023-04-01T07:34:25;98707.66;;;13.30;100.00
21273;BME280;36726;52.328;10.552;2023-04-01T07:37:15;98712.53;;;13.45;100.00
21273;BME280;36726;52.328;10.552;2023-04-01T07:40:07;98715.63;;;13.61;100.00
21273;BME280;36726;52.328;10.552;2023-04-01T07:48:20;98728.28;;;13.82;98.87
21273;BME280;36726;52.328;10.552;2023-04-01T07:50:59;98721.03;;;13.87;98.55
21273;BME280;36726;52.328;10.552;2023-04-01T07:53:36;98729.78;;;13.92;97.46
21273;BME280;36726;52.328;10.552;2023-04-01T07:56:09;98732.28;;;13.96;96.75
21273;BME280;36726;52.328;10.552;2023-04-01T07:58:57;98727.75;;;14.00;96.63
21273;BME280;36726;52.328;10.552;2023-04-01T08:05:14;98738.63;;;14.20;95.43
21273;BME280;36726;52.328;10.552;2023-04-01T08:08:11;98742.78;;;14.30;94.82
21273;BME280;36726;52.328;10.552;2023-04-01T08:11:28;98741.47;;;14.43;95.01
21273;BME280;36726;52.328;10.552;2023-04-01T08:17:39;98744.66;;;14.54;93.43
21273;BME280;36726;52.328;10.552;2023-04-01T08:20:18;98747.16;;;14.60;92.91
21273;BME280;36726;52.328;10.552;2023-04-01T08:22:50;98746.84;;;14.69;93.11
21273;BME280;36726;52.328;10.552;2023-04-01T08:25:28;98758.91;;;14.79;93.43
21273;BME280;36726;52.328;10.552;2023-04-01T08:28:02;98757.91;;;14.83;91.91
21273;BME280;36726;52.328;10.552;2023-04-01T08:30:45;98763.84;;;14.91;91.04
21273;BME280;36726;52.328;10.552;2023-04-01T08:33:25;98760.00;;;15.00;89.32
21273;BME280;36726;52.328;10.552;2023-04-01T08:38:40;98763.47;;;15.28;88.86
21273;BME280;36726;52.328;10.552;2023-04-01T08:41:41;98758.75;;;15.36;88.30
21273;BME280;36726;52.328;10.552;2023-04-01T08:47:42;98757.69;;;15.40;86.82
21273;BME280;36726;52.328;10.552;2023-04-01T08:56:23;98775.75;;;15.32;85.92
21273;BME280;36726;52.328;10.552;2023-04-01T09:04:50;98779.59;;;14.97;85.22
21273;BME280;36726;52.328;10.552;2023-04-01T09:07:42;98782.53;;;14.90;85.41
21273;BME280;36726;52.328;10.552;2023-04-01T09:16:33;98784.22;;;14.92;85.91
21273;BME280;36726;52.328;10.552;2023-04-01T09:21:32;98785.13;;;14.91;86.11
21273;BME280;36726;52.328;10.552;2023-04-01T09:35:56;98799.16;;;15.22;85.06
21273;BME280;36726;52.328;10.552;2023-04-01T09:44:11;98805.34;;;15.50;84.56
21273;BME280;36726;52.328;10.552;2023-04-01T09:53:33;98805.75;;;15.88;83.40
21273;BME280;36726;52.328;10.552;2023-04-01T09:57:18;98811.69;;;15.96;79.94
21273;BME280;36726;52.328;10.552;2023-04-01T09:59:49;98810.06;;;16.15;78.22
21273;BME280;36726;52.328;10.552;2023-04-01T10:05:25;98813.66;;;16.37;75.93
21273;BME280;36726;52.328;10.552;2023-04-01T10:11:25;98812.63;;;16.64;74.21
21273;BME280;36726;52.328;10.552;2023-04-01T10:17:09;98810.22;;;16.80;74.30
21273;BME280;36726;52.328;10.552;2023-04-01T10:35:07;98833.25;;;16.36;72.28
21273;BME280;36726;52.328;10.552;2023-04-01T10:41:03;98830.66;;;16.11;71.98
21273;BME280;36726;52.328;10.552;2023-04-01T10:53:32;98841.69;;;15.51;71.57
21273;BME280;36726;52.328;10.552;2023-04-01T11:03:35;98850.25;;;14.81;73.85
21273;BME280;36726;52.328;10.552;2023-04-01T11:15:00;98859.94;;;14.82;77.17
21273;BME280;36726;52.328;10.552;2023-04-01T11:18:41;98852.78;;;14.84;76.90
21273;BME280;36726;52.328;10.552;2023-04-01T11:27:09;98872.06;;;14.92;77.86
21273;BME280;36726;52.328;10.552;2023-04-01T11:36:06;98874.63;;;14.95;76.36
21273;BME280;36726;52.328;10.552;2023-04-01T11:41:43;98884.31;;;14.98;76.97
21273;BME280;36726;52.328;10.552;2023-04-01T11:45:07;98887.88;;;14.98;76.37
21273;BME280;36726;52.328;10.552;2023-04-01T11:48:02;98881.72;;;14.95;75.78
21273;BME280;36726;52.328;10.552;2023-04-01T11:53:52;98893.25;;;14.95;76.22
21273;BME280;36726;52.328;10.552;2023-04-01T11:56:45;98887.03;;;14.96;75.93
21273;BME280;36726;52.328;10.552;2023-04-01T12:11:09;98905.13;;;15.40;75.14
21273;BME280;36726;52.328;10.552;2023-04-01T12:13:43;98901.56;;;15.41;74.33
21273;BME280;36726;52.328;10.552;2023-04-01T12:16:41;98907.72;;;15.43;74.81
21273;BME280;36726;52.328;10.552;2023-04-01T12:19:32;98909.59;;;15.38;74.21
21273;BME280;36726;52.328;10.552;2023-04-01T12:26:09;98919.13;;;15.19;75.58
21273;BME280;36726;52.328;10.552;2023-04-01T12:31:34;98922.13;;;15.09;77.65
21273;BME280;36726;52.328;10.552;2023-04-01T12:37:03;98927.88;;;14.95;78.31
21273;BME280;36726;52.328;10.552;2023-04-01T12:45:29;98925.03;;;14.72;83.28
21273;BME280;36726;52.328;10.552;2023-04-01T12:57:01;98935.28;;;14.55;90.27
21273;BME280;36726;52.328;10.552;2023-04-01T13:02:20;98939.41;;;14.36;95.15
21273;BME280;36726;52.328;10.552;2023-04-01T13:08:04;98947.78;;;14.21;99.54
21273;BME280;36726;52.328;10.552;2023-04-01T13:10:57;98953.44;;;14.09;100.00
21273;BME280;36726;52.328;10.552;2023-04-01T13:13:39;98954.66;;;13.96;100.00
21273;BME280;36726;52.328;10.552;2023-04-01T13:16:19;98957.50;;;13.90;100.00
21273;BME280;36726;52.328;10.552;2023-04-01T13:22:12;98972.84;;;13.79;100.00
21273;BME280;36726;52.328;10.552;2023-04-01T13:30:24;98975.00;;;13.28;100.00
21273;BME280;36726;52.328;10.552;2023-04-01T13:33:04;98983.22;;;13.17;100.00
21273;BME280;36726;52.328;10.552;2023-04-01T13:38:42;98997.75;;;12.98;100.00
21273;BME280;36726;52.328;10.552;2023-04-01T13:44:12;99009.97;;;12.64;100.00
21273;BME280;36726;52.328;10.552;2023-04-01T13:55:26;99024.25;;;12.13;100.00
21273;BME280;36726;52.328;10.552;2023-04-01T14:01:08;99028.00;;;12.00;100.00
21273;BME280;36726;52.328;10.552;2023-04-01T14:06:14;99039.66;;;11.90;100.00
21273;BME280;36726;52.328;10.552;2023-04-01T14:14:31;99041.53;;;11.83;100.00
21273;BME280;36726;52.328;10.552;2023-04-01T14:17:10;99045.09;;;11.81;100.00
21273;BME280;36726;52.328;10.552;2023-04-01T14:25:29;99065.63;;;11.70;100.00
21273;BME280;36726;52.328;10.552;2023-04-01T14:33:43;99076.59;;;11.42;100.00
21273;BME280;36726;52.328;10.552;2023-04-01T14:39:29;99081.31;;;11.21;100.00
21273;BME280;36726;52.328;10.552;2023-04-01T14:47:51;99091.31;;;10.95;100.00
21273;BME280;36726;52.328;10.552;2023-04-01T14:50:23;99094.03;;;10.90;100.00
21273;BME280;36726;52.328;10.552;2023-04-01T14:52:59;99100.25;;;10.86;100.00
21273;BME280;36726;52.328;10.552;2023-04-01T14:55:48;99111.81;;;10.79;100.00
21273;BME280;36726;52.328;10.552;2023-04-01T14:58:17;99110.13;;;10.72;100.00
21273;BME280;36726;52.328;10.552;2023-04-01T15:03:48;99116.44;;;10.59;100.00
21273;BME280;36726;52.328;10.552;2023-04-01T15:11:55;99138.66;;;10.38;100.00
21273;BME280;36726;52.328;10.552;2023-04-01T15:17:29;99158.19;;;10.21;100.00
21273;BME280;36726;52.328;10.552;2023-04-01T15:26:19;99165.28;;;10.16;100.00
21273;BME280;36726;52.328;10.552;2023-04-01T15:29:06;99175.91;;;10.10;100.00
21273;BME280;36726;52.328;10.552;2023-04-01T15:31:44;99183.81;;;10.07;100.00
21273;BME280;36726;52.328;10.552;2023-04-01T15:34:24;99183.81;;;10.04;100.00
21273;BME280;36726;52.328;10.552;2023-04-01T15:42:48;99204.16;;;9.91;100.00
21273;BME280;36726;52.328;10.552;2023-04-01T15:55:56;99234.16;;;9.77;100.00
21273;BME280;36726;52.328;10.552;2023-04-01T16:04:11;99245.69;;;9.59;100.00
21273;BME280;36726;52.328;10.552;2023-04-01T16:18:18;99266.88;;;9.46;100.00
21273;BME280;36726;52.328;10.552;2023-04-01T16:20:57;99266.88;;;9.42;100.00
21273;BME280;36726;52.328;10.552;2023-04-01T16:23:40;99266.00;;;9.40;100.00
21273;BME280;36726;52.328;10.552;2023-04-01T16:26:15;99269.53;;;9.38;100.00
21273;BME280;36726;52.328;10.552;2023-04-01T16:28:54;99278.34;;;9.32;100.00
21273;BME280;36726;52.328;10.552;2023-04-01T16:31:34;99281.00;;;9.31;100.00
21273;BME280;36726;52.328;10.552;2023-04-01T16:34:14;99295.97;;;9.29;100.00
21273;BME280;36726;52.328;10.552;2023-04-01T16:36:48;99294.19;;;9.25;100.00
21273;BME280;36726;52.328;10.552;2023-04-01T16:39:52;99302.16;;;9.20;100.00
21273;BME280;36726;52.328;10.552;2023-04-01T16:45:21;99308.31;;;9.13;100.00
21273;BME280;36726;52.328;10.552;2023-04-01T16:47:54;99317.09;;;9.12;100.00
21273;BME280;36726;52.328;10.552;2023-04-01T16:50:54;99310.97;;;9.13;100.00
21273;BME280;36726;52.328;10.552;2023-04-01T16:58:41;99337.31;;;9.00;100.00
21273;BME280;36726;52.328;10.552;2023-04-01T17:01:21;99345.22;;;8.92;100.00
21273;BME280;36726;52.328;10.552;2023-04-01T17:03:54;99349.63;;;8.89;100.00
21273;BME280;36726;52.328;10.552;2023-04-01T17:12:14;99378.63;;;8.66;100.00
21273;BME280;36726;52.328;10.552;2023-04-01T17:15:00;99373.34;;;8.57;100.00
21273;BME280;36726;52.328;10.552;2023-04-01T17:17:42;99382.97;;;8.46;100.00
21273;BME280;36726;52.328;10.552;2023-04-01T17:20:12;99397.03;;;8.39;100.00
21273;BME280;36726;52.328;10.552;2023-04-01T17:31:30;99396.97;;;8.24;100.00
21273;BME280;36726;52.328;10.552;2023-04-01T17:34:02;99428.50;;;8.18;100.00
21273;BME280;36726;52.328;10.552;2023-04-01T17:39:34;99435.50;;;8.10;100.00
21273;BME280;36726;52.328;10.552;2023-04-01T17:42:13;99444.25;;;8.06;100.00
21273;BME280;36726;52.328;10.552;2023-04-01T17:45:05;99448.63;;;8.01;100.00
21273;BME280;36726;52.328;10.552;2023-04-01T17:56:14;99474.81;;;7.78;100.00
21273;BME280;36726;52.328;10.552;2023-04-01T18:07:51;99495.81;;;7.68;100.00
21273;BME280;36726;52.328;10.552;2023-04-01T18:10:26;99509.84;;;7.67;100.00
21273;BME280;36726;52.328;10.552;2023-04-01T18:13:29;99523.00;;;7.67;100.00
21273;BME280;36726;52.328;10.552;2023-04-01T18:16:15;99517.69;;;7.62;100.00
21273;BME280;36726;52.328;10.552;2023-04-01T18:21:46;99528.19;;;7.58;100.00
21273;BME280;36726;52.328;10.552;2023-04-01T18:24:16;99551.00;;;7.59;100.00
21273;BME280;36726;52.328;10.552;2023-04-01T18:27:04;99538.72;;;7.58;100.00
21273;BME280;36726;52.328;10.552;2023-04-01T18:29:44;99554.47;;;7.55;100.00
21273;BME280;36726;52.328;10.552;2023-04-01T18:32:37;99562.34;;;7.53;100.00
21273;BME280;36726;52.328;10.552;2023-04-01T18:35:16;99563.16;;;7.48;100.00
21273;BME280;36726;52.328;10.552;2023-04-01T18:37:59;99574.56;;;7.45;100.00
21273;BME280;36726;52.328;10.552;2023-04-01T18:40:47;99575.41;;;7.43;100.00
21273;BME280;36726;52.328;10.552;2023-04-01T18:43:21;99579.75;;;7.38;100.00
21273;BME280;36726;52.328;10.552;2023-04-01T18:45:58;99583.22;;;7.36;100.00
21273;BME280;36726;52.328;10.552;2023-04-01T18:51:13;99609.47;;;7.29;100.00
21273;BME280;36726;52.328;10.552;2023-04-01T18:53:57;99604.19;;;7.27;100.00
21273;BME280;36726;52.328;10.552;2023-04-01T18:56:31;99620.81;;;7.23;100.00
21273;BME280;36726;52.328;10.552;2023-04-01T18:59:10;99614.63;;;7.20;100.00
21273;BME280;36726;52.328;10.552;2023-04-01T19:04:37;99624.28;;;7.19;100.00
21273;BME280;36726;52.328;10.552;2023-04-01T19:07:34;99630.34;;;7.15;100.00
21273;BME280;36726;52.328;10.552;2023-04-01T19:10:31;99639.84;;;7.04;100.00
21273;BME280;36726;52.328;10.552;2023-04-01T19:13:28;99639.81;;;6.98;100.00
21273;BME280;36726;52.328;10.552;2023-04-01T19:16:26;99650.31;;;6.98;100.00
21273;BME280;36726;52.328;10.552;2023-04-01T19:19:01;99659.94;;;6.96;100.00
21273;BME280;36726;52.328;10.552;2023-04-01T19:21:33;99659.94;;;6.96;100.00
21273;BME280;36726;52.328;10.552;2023-04-01T19:24:44;99672.06;;;6.88;100.00
21273;BME280;36726;52.328;10.552;2023-04-01T19:27:41;99677.22;;;6.79;100.00
21273;BME280;36726;52.328;10.552;2023-04-01T19:30:34;99683.25;;;6.72;100.00
21273;BME280;36726;52.328;10.552;2023-04-01T19:38:53;99698.72;;;6.53;100.00
21273;BME280;36726;52.328;10.552;2023-04-01T19:52:17;99724.84;;;6.42;100.00
21273;BME280;36726;52.328;10.552;2023-04-01T20:16:56;99780.44;;;6.17;100.00
21273;BME280;36726;52.328;10.552;2023-04-01T20:19:33;99797.00;;;6.14;100.00